createdAt,value
2017-05-29T00:00:41.139Z,1009.61
2017-05-29T00:01:42.558Z,1009.64
2017-05-29T00:02:43.983Z,1009.63
2017-05-29T00:03:45.397Z,1009.65
2017-05-29T00:04:46.825Z,1009.62
2017-05-29T00:05:48.245Z,1009.61
2017-05-29T00:06:49.660Z,1009.59
2017-05-29T00:07:51.084Z,1009.56
2017-05-29T00:08:52.514Z,1009.56
2017-05-29T00:09:53.986Z,1009.58
2017-05-29T00:10:55.407Z,1009.57
2017-05-29T00:11:56.829Z,1009.55
2017-05-29T00:12:58.265Z,1009.54
2017-05-29T00:13:59.750Z,1009.52
2017-05-29T00:15:01.118Z,1009.51
2017-05-29T00:16:02.533Z,1009.48
2017-05-29T00:17:03.954Z,1009.47
2017-05-29T00:18:05.373Z,1009.46
2017-05-29T00:19:06.789Z,1009.47
2017-05-29T00:20:08.217Z,1009.44
2017-05-29T00:21:09.638Z,1009.45
2017-05-29T00:22:11.058Z,1009.41
2017-05-29T00:23:12.476Z,1009.40
2017-05-29T00:24:13.915Z,1009.36
2017-05-29T00:25:15.322Z,1009.38
2017-05-29T00:26:16.764Z,1009.35
2017-05-29T00:27:18.169Z,1009.35
2017-05-29T00:28:19.588Z,1009.34
2017-05-29T00:29:21.032Z,1009.30
2017-05-29T00:30:22.460Z,1009.32
2017-05-29T00:31:23.903Z,1009.31
2017-05-29T00:32:25.322Z,1009.27
2017-05-29T00:33:26.741Z,1009.29
2017-05-29T00:34:28.182Z,1009.27
2017-05-29T00:35:29.596Z,1009.27
2017-05-29T00:36:31.031Z,1009.28
2017-05-29T00:37:32.448Z,1009.27
2017-05-29T00:38:33.875Z,1009.24
2017-05-29T00:39:35.319Z,1009.25
2017-05-29T00:40:36.734Z,1009.31
2017-05-29T00:41:38.162Z,1009.28
2017-05-29T00:42:39.574Z,1009.29
2017-05-29T00:43:40.990Z,1009.34
2017-05-29T00:44:42.409Z,1009.32
2017-05-29T00:45:43.823Z,1009.35
2017-05-29T00:46:45.248Z,1009.31
2017-05-29T00:47:46.665Z,1009.30
2017-05-29T00:48:48.095Z,1009.30
2017-05-29T00:49:49.532Z,1009.31
2017-05-29T00:50:50.953Z,1009.29
2017-05-29T00:51:52.372Z,1009.27
2017-05-29T00:52:53.802Z,1009.28
2017-05-29T00:53:55.220Z,1009.30
2017-05-29T00:54:56.638Z,1009.28
2017-05-29T00:55:58.070Z,1009.30
2017-05-29T00:56:59.532Z,1009.29
2017-05-29T00:58:00.956Z,1009.28
2017-05-29T00:59:02.385Z,1009.26
2017-05-29T01:00:03.825Z,1009.28
2017-05-29T01:01:05.262Z,1009.28
2017-05-29T01:02:06.689Z,1009.33
2017-05-29T01:03:08.122Z,1009.32
2017-05-29T01:04:09.544Z,1009.31
2017-05-29T01:05:10.963Z,1009.35
2017-05-29T01:06:12.381Z,1009.33
2017-05-29T01:07:13.807Z,1009.34
2017-05-29T01:08:15.222Z,1009.32
2017-05-29T01:09:16.690Z,1009.33
2017-05-29T01:10:18.161Z,1009.35
2017-05-29T01:11:19.521Z,1009.37
2017-05-29T01:12:20.949Z,1009.35
2017-05-29T01:13:22.379Z,1009.37
2017-05-29T01:14:23.808Z,1009.38
2017-05-29T01:15:25.251Z,1009.35
2017-05-29T01:16:26.666Z,1009.41
2017-05-29T01:17:28.084Z,1009.42
2017-05-29T01:18:29.500Z,1009.43
2017-05-29T01:19:30.921Z,1009.42
2017-05-29T01:20:32.343Z,1009.49
2017-05-29T01:21:33.762Z,1009.47
2017-05-29T01:22:35.173Z,1009.47
2017-05-29T01:23:36.591Z,1009.48
2017-05-29T01:24:38.013Z,1009.51
2017-05-29T01:25:39.430Z,1009.49
2017-05-29T01:26:40.851Z,1009.54
2017-05-29T01:27:42.286Z,1009.55
2017-05-29T01:28:43.721Z,1009.54
2017-05-29T01:29:45.167Z,1009.51
2017-05-29T01:30:46.586Z,1009.50
2017-05-29T01:31:48.005Z,1009.53
2017-05-29T01:32:49.443Z,1009.54
2017-05-29T01:33:50.842Z,1009.49
2017-05-29T01:34:52.273Z,1009.51
2017-05-29T01:35:53.716Z,1009.51
2017-05-29T01:36:55.191Z,1009.49
2017-05-29T01:37:56.558Z,1009.48
2017-05-29T01:38:57.994Z,1009.50
2017-05-29T01:39:59.423Z,1009.54
2017-05-29T01:41:00.862Z,1009.54
2017-05-29T01:42:02.298Z,1009.46
2017-05-29T01:43:03.744Z,1009.46
2017-05-29T01:44:05.179Z,1009.42
2017-05-29T01:45:06.620Z,1009.43
2017-05-29T01:46:08.057Z,1009.43
2017-05-29T01:47:09.498Z,1009.44
2017-05-29T01:48:10.934Z,1009.40
2017-05-29T01:49:12.354Z,1009.38
2017-05-29T01:50:13.785Z,1009.39
2017-05-29T01:51:15.226Z,1009.31
2017-05-29T01:52:16.666Z,1009.29
2017-05-29T01:53:18.089Z,1009.29
2017-05-29T01:54:19.513Z,1009.31
2017-05-29T01:55:20.939Z,1009.29
2017-05-29T01:56:22.361Z,1009.27
2017-05-29T01:57:23.801Z,1009.29
2017-05-29T01:58:25.250Z,1009.25
2017-05-29T01:59:26.678Z,1009.28
2017-05-29T02:00:28.090Z,1009.29
2017-05-29T02:01:29.508Z,1009.33
2017-05-29T02:02:30.940Z,1009.31
2017-05-29T02:03:32.374Z,1009.32
2017-05-29T02:04:33.817Z,1009.28
2017-05-29T02:05:35.245Z,1009.31
2017-05-29T02:06:36.662Z,1009.29
2017-05-29T02:07:38.098Z,1009.33
2017-05-29T02:08:39.501Z,1009.32
2017-05-29T02:09:40.919Z,1009.36
2017-05-29T02:10:42.383Z,1009.32
2017-05-29T02:11:43.814Z,1009.32
2017-05-29T02:12:45.244Z,1009.31
2017-05-29T02:13:46.656Z,1009.27
2017-05-29T02:14:48.073Z,1009.29
2017-05-29T02:15:49.508Z,1009.25
2017-05-29T02:16:50.923Z,1009.24
2017-05-29T02:17:52.341Z,1009.25
2017-05-29T02:18:53.779Z,1009.28
2017-05-29T02:19:55.194Z,1009.28
2017-05-29T02:20:56.626Z,1009.28
2017-05-29T02:21:58.050Z,1009.29
2017-05-29T02:22:59.461Z,1009.28
2017-05-29T02:24:00.921Z,1009.28
2017-05-29T02:25:02.360Z,1009.28
2017-05-29T02:26:03.787Z,1009.31
2017-05-29T02:27:05.215Z,1009.28
2017-05-29T02:28:06.642Z,1009.25
2017-05-29T02:29:08.073Z,1009.25
2017-05-29T02:30:09.494Z,1009.20
2017-05-29T02:31:10.909Z,1009.18
2017-05-29T02:32:12.341Z,1009.12
2017-05-29T02:33:13.752Z,1009.13
2017-05-29T02:34:15.186Z,1009.09
2017-05-29T02:35:16.605Z,1009.05
2017-05-29T02:36:18.045Z,1009.06
2017-05-29T02:37:19.469Z,1009.01
2017-05-29T02:38:20.908Z,1008.98
2017-05-29T02:39:22.337Z,1009.01
2017-05-29T02:40:23.765Z,1009.02
2017-05-29T02:41:25.182Z,1009.00
2017-05-29T02:42:26.608Z,1008.99
2017-05-29T02:43:28.016Z,1009.01
2017-05-29T02:44:29.445Z,1009.04
2017-05-29T02:45:30.865Z,1009.05
2017-05-29T02:46:32.307Z,1009.07
2017-05-29T02:47:33.721Z,1009.09
2017-05-29T02:48:35.143Z,1009.08
2017-05-29T02:49:36.561Z,1009.08
2017-05-29T02:50:37.978Z,1009.11
2017-05-29T02:51:39.397Z,1009.09
2017-05-29T02:52:40.819Z,1009.11
2017-05-29T02:53:42.243Z,1009.14
2017-05-29T02:54:43.687Z,1009.11
2017-05-29T02:55:45.114Z,1009.11
2017-05-29T02:56:46.553Z,1009.09
2017-05-29T02:57:47.974Z,1009.07
2017-05-29T02:58:49.390Z,1009.08
2017-05-29T02:59:50.823Z,1009.08
2017-05-29T03:00:52.231Z,1009.09
2017-05-29T03:01:53.649Z,1009.08
2017-05-29T03:02:55.066Z,1009.06
2017-05-29T03:03:56.486Z,1009.01
2017-05-29T03:04:57.921Z,1008.97
2017-05-29T03:05:59.339Z,1008.92
2017-05-29T03:07:00.756Z,1008.89
2017-05-29T03:08:02.186Z,1008.80
2017-05-29T03:09:03.611Z,1008.81
2017-05-29T03:10:05.029Z,1008.79
2017-05-29T03:11:06.442Z,1008.74
2017-05-29T03:12:07.861Z,1008.71
2017-05-29T03:13:09.286Z,1008.73
2017-05-29T03:14:10.714Z,1008.74
2017-05-29T03:15:12.137Z,1008.71
2017-05-29T03:16:14.365Z,1008.70
2017-05-29T03:17:15.798Z,1008.70
2017-05-29T03:18:17.217Z,1008.73
2017-05-29T03:19:18.637Z,1008.71
2017-05-29T03:20:20.053Z,1008.71
2017-05-29T03:21:21.474Z,1008.63
2017-05-29T03:22:22.904Z,1008.63
2017-05-29T03:23:24.313Z,1008.64
2017-05-29T03:24:25.729Z,1008.59
2017-05-29T03:25:27.148Z,1008.57
2017-05-29T03:26:28.565Z,1008.56
2017-05-29T03:27:29.980Z,1008.56
2017-05-29T03:28:31.402Z,1008.54
2017-05-29T03:29:32.816Z,1008.52
2017-05-29T03:30:34.269Z,1008.52
2017-05-29T03:31:35.698Z,1008.55
2017-05-29T03:32:37.118Z,1008.53
2017-05-29T03:33:38.539Z,1008.53
2017-05-29T03:34:39.957Z,1008.53
2017-05-29T03:35:41.375Z,1008.54
2017-05-29T03:36:42.795Z,1008.53
2017-05-29T03:37:44.230Z,1008.57
2017-05-29T03:38:45.657Z,1008.52
2017-05-29T03:39:47.070Z,1008.55
2017-05-29T03:40:48.489Z,1008.50
2017-05-29T03:41:49.905Z,1008.48
2017-05-29T03:42:51.327Z,1008.48
2017-05-29T03:43:52.784Z,1008.44
2017-05-29T03:44:54.204Z,1008.43
2017-05-29T03:45:55.643Z,1008.41
2017-05-29T03:46:57.060Z,1008.41
2017-05-29T03:47:58.477Z,1008.43
2017-05-29T03:48:59.895Z,1008.40
2017-05-29T03:50:01.314Z,1008.37
2017-05-29T03:51:02.734Z,1008.40
2017-05-29T03:52:04.170Z,1008.40
2017-05-29T03:53:05.597Z,1008.39
2017-05-29T03:54:07.020Z,1008.42
2017-05-29T03:55:08.443Z,1008.43
2017-05-29T03:56:09.856Z,1008.39
2017-05-29T03:57:11.303Z,1008.38
2017-05-29T03:58:12.725Z,1008.34
2017-05-29T03:59:14.152Z,1008.35
2017-05-29T04:00:15.569Z,1008.36
2017-05-29T04:01:16.997Z,1008.34
2017-05-29T04:02:18.430Z,1008.36
2017-05-29T04:03:19.872Z,1008.35
2017-05-29T04:04:21.294Z,1008.34
2017-05-29T04:05:22.723Z,1008.33
2017-05-29T04:06:24.158Z,1008.31
2017-05-29T04:07:25.589Z,1008.31
2017-05-29T04:08:27.024Z,1008.35
2017-05-29T04:09:29.109Z,1008.32
2017-05-29T04:10:30.533Z,1008.32
2017-05-29T04:11:31.955Z,1008.36
2017-05-29T04:12:33.394Z,1008.32
2017-05-29T04:13:34.852Z,1008.32
2017-05-29T04:14:36.279Z,1008.31
2017-05-29T04:15:37.707Z,1008.30
2017-05-29T04:16:39.124Z,1008.30
2017-05-29T04:17:40.555Z,1008.27
2017-05-29T04:18:41.979Z,1008.27
2017-05-29T04:19:43.400Z,1008.28
2017-05-29T04:20:44.847Z,1008.25
2017-05-29T04:21:46.267Z,1008.24
2017-05-29T04:22:47.727Z,1008.28
2017-05-29T04:23:49.147Z,1008.26
2017-05-29T04:24:50.571Z,1008.32
2017-05-29T04:25:52.020Z,1008.34
2017-05-29T04:26:53.441Z,1008.38
2017-05-29T04:27:54.891Z,1008.35
2017-05-29T04:28:56.304Z,1008.36
2017-05-29T04:29:57.767Z,1008.38
2017-05-29T04:30:59.190Z,1008.33
2017-05-29T04:32:00.618Z,1008.32
2017-05-29T04:33:02.039Z,1008.35
2017-05-29T04:34:03.465Z,1008.30
2017-05-29T04:35:04.892Z,1008.32
2017-05-29T04:36:06.329Z,1008.31
2017-05-29T04:37:07.759Z,1008.34
2017-05-29T04:38:09.235Z,1008.30
2017-05-29T04:39:10.653Z,1008.32
2017-05-29T04:40:12.081Z,1008.31
2017-05-29T04:41:13.529Z,1008.32
2017-05-29T04:42:14.998Z,1008.34
2017-05-29T04:43:16.449Z,1008.35
2017-05-29T04:44:17.907Z,1008.34
2017-05-29T04:45:19.327Z,1008.36
2017-05-29T04:46:20.778Z,1008.35
2017-05-29T04:47:22.254Z,1008.38
2017-05-29T04:48:23.694Z,1008.37
2017-05-29T04:49:25.176Z,1008.39
2017-05-29T04:50:27.188Z,1008.38
2017-05-29T04:51:28.591Z,1008.38
2017-05-29T04:52:30.062Z,1008.35
2017-05-29T04:53:31.500Z,1008.39
2017-05-29T04:54:32.986Z,1008.36
2017-05-29T04:55:34.432Z,1008.35
2017-05-29T04:56:35.882Z,1008.30
2017-05-29T04:57:37.334Z,1008.27
2017-05-29T04:58:38.763Z,1008.33
2017-05-29T04:59:40.184Z,1008.30
2017-05-29T05:00:41.620Z,1008.32
2017-05-29T05:01:43.035Z,1008.37
2017-05-29T05:02:44.466Z,1008.43
2017-05-29T05:03:45.893Z,1008.37
2017-05-29T05:04:47.528Z,1008.38
2017-05-29T05:05:48.948Z,1008.41
2017-05-29T05:06:50.378Z,1008.39
2017-05-29T05:07:51.802Z,1008.38
2017-05-29T05:08:53.234Z,1008.32
2017-05-29T05:09:54.659Z,1008.36
2017-05-29T05:10:56.101Z,1008.31
2017-05-29T05:11:57.585Z,1008.27
2017-05-29T05:12:59.028Z,1008.23
2017-05-29T05:14:00.451Z,1008.25
2017-05-29T05:15:01.884Z,1008.27
2017-05-29T05:16:03.299Z,1008.27
2017-05-29T05:17:04.727Z,1008.23
2017-05-29T05:18:06.188Z,1008.23
2017-05-29T05:19:07.615Z,1008.23
2017-05-29T05:20:09.029Z,1008.21
2017-05-29T05:21:10.452Z,1008.18
2017-05-29T05:22:11.877Z,1008.21
2017-05-29T05:23:13.305Z,1008.19
2017-05-29T05:24:14.727Z,1008.16
2017-05-29T05:25:16.156Z,1008.19
2017-05-29T05:26:17.580Z,1008.23
2017-05-29T05:27:18.998Z,1008.25
2017-05-29T05:28:20.428Z,1008.27
2017-05-29T05:29:21.848Z,1008.27
2017-05-29T05:30:23.271Z,1008.29
2017-05-29T05:31:24.693Z,1008.25
2017-05-29T05:32:26.209Z,1008.27
2017-05-29T05:33:27.628Z,1008.26
2017-05-29T05:34:29.053Z,1008.25
2017-05-29T05:35:30.469Z,1008.24
2017-05-29T05:36:31.888Z,1008.24
2017-05-29T05:37:33.308Z,1008.23
2017-05-29T05:38:34.740Z,1008.21
2017-05-29T05:39:36.164Z,1008.23
2017-05-29T05:40:37.581Z,1008.24
2017-05-29T05:41:38.993Z,1008.24
2017-05-29T05:42:40.476Z,1008.25
2017-05-29T05:43:41.911Z,1008.27
2017-05-29T05:44:43.412Z,1008.28
2017-05-29T05:45:44.832Z,1008.31
2017-05-29T05:46:46.252Z,1008.32
2017-05-29T05:47:47.674Z,1008.37
2017-05-29T05:48:49.090Z,1008.32
2017-05-29T05:49:50.511Z,1008.32
2017-05-29T05:50:51.933Z,1008.30
2017-05-29T05:51:53.367Z,1008.29
2017-05-29T05:52:54.772Z,1008.31
2017-05-29T05:53:56.191Z,1008.31
2017-05-29T05:54:57.612Z,1008.29
2017-05-29T05:55:59.045Z,1008.29
2017-05-29T05:57:00.468Z,1008.26
2017-05-29T05:58:01.888Z,1008.29
2017-05-29T05:59:03.363Z,1008.28
2017-05-29T06:00:04.792Z,1008.29
2017-05-29T06:01:06.223Z,1008.29
2017-05-29T06:02:07.638Z,1008.29
2017-05-29T06:03:09.056Z,1008.24
2017-05-29T06:04:10.478Z,1008.29
2017-05-29T06:05:11.917Z,1008.27
2017-05-29T06:06:13.329Z,1008.23
2017-05-29T06:07:14.745Z,1008.23
2017-05-29T06:08:16.175Z,1008.21
2017-05-29T06:09:17.589Z,1008.20
2017-05-29T06:10:19.011Z,1008.17
2017-05-29T06:11:20.434Z,1008.18
2017-05-29T06:12:21.861Z,1008.13
2017-05-29T06:13:23.277Z,1008.17
2017-05-29T06:14:24.707Z,1008.11
2017-05-29T06:15:26.129Z,1008.15
2017-05-29T06:16:27.552Z,1008.16
2017-05-29T06:17:28.998Z,1008.17
2017-05-29T06:18:30.433Z,1008.18
2017-05-29T06:19:31.845Z,1008.13
2017-05-29T06:20:33.278Z,1008.19
2017-05-29T06:21:34.706Z,1008.18
2017-05-29T06:22:36.113Z,1008.22
2017-05-29T06:23:37.537Z,1008.24
2017-05-29T06:24:38.966Z,1008.22
2017-05-29T06:25:40.385Z,1008.23
2017-05-29T06:26:41.847Z,1008.25
2017-05-29T06:27:43.270Z,1008.20
2017-05-29T06:28:44.693Z,1008.20
2017-05-29T06:29:46.125Z,1008.17
2017-05-29T06:30:47.540Z,1008.18
2017-05-29T06:31:48.962Z,1008.18
2017-05-29T06:32:50.390Z,1008.21
2017-05-29T06:33:51.828Z,1008.18
2017-05-29T06:34:53.232Z,1008.20
2017-05-29T06:35:54.654Z,1008.23
2017-05-29T06:36:56.083Z,1008.19
2017-05-29T06:37:57.507Z,1008.22
2017-05-29T06:38:58.933Z,1008.21
2017-05-29T06:40:00.365Z,1008.21
2017-05-29T06:41:01.797Z,1008.18
2017-05-29T06:42:03.205Z,1008.15
2017-05-29T06:43:04.646Z,1008.11
2017-05-29T06:44:06.058Z,1008.13
2017-05-29T06:45:07.491Z,1008.12
2017-05-29T06:46:08.929Z,1008.11
2017-05-29T06:47:10.355Z,1008.08
2017-05-29T06:48:11.800Z,1008.10
2017-05-29T06:49:13.224Z,1008.09
2017-05-29T06:50:14.640Z,1008.06
2017-05-29T06:51:16.064Z,1008.11
2017-05-29T06:52:17.490Z,1008.11
2017-05-29T06:53:18.912Z,1008.12
2017-05-29T06:54:20.335Z,1008.10
2017-05-29T06:55:21.792Z,1008.13
2017-05-29T06:56:23.221Z,1008.07
2017-05-29T06:57:24.679Z,1008.10
2017-05-29T06:58:26.099Z,1008.08
2017-05-29T06:59:27.533Z,1008.05
2017-05-29T07:00:28.968Z,1008.07
2017-05-29T07:01:30.379Z,1008.04
2017-05-29T07:02:31.862Z,1008.03
2017-05-29T07:03:33.309Z,1008.02
2017-05-29T07:04:34.724Z,1008.00
2017-05-29T07:05:36.147Z,1007.98
2017-05-29T07:06:37.576Z,1007.94
2017-05-29T07:07:38.996Z,1007.92
2017-05-29T07:08:40.414Z,1007.92
2017-05-29T07:09:41.840Z,1007.91
2017-05-29T07:10:43.272Z,1007.90
2017-05-29T07:11:44.692Z,1007.92
2017-05-29T07:12:46.116Z,1007.87
2017-05-29T07:13:47.578Z,1007.90
2017-05-29T07:14:48.999Z,1007.88
2017-05-29T07:15:50.438Z,1007.88
2017-05-29T07:16:51.848Z,1007.90
2017-05-29T07:17:53.272Z,1007.84
2017-05-29T07:18:54.699Z,1007.86
2017-05-29T07:19:56.133Z,1007.83
2017-05-29T07:20:57.551Z,1007.92
2017-05-29T07:21:59.006Z,1007.92
2017-05-29T07:23:00.447Z,1007.93
2017-05-29T07:24:01.866Z,1007.92
2017-05-29T07:25:03.285Z,1007.95
2017-05-29T07:26:04.726Z,1007.94
2017-05-29T07:27:06.174Z,1007.92
2017-05-29T07:28:07.598Z,1007.93
2017-05-29T07:29:09.073Z,1007.95
2017-05-29T07:30:10.502Z,1007.93
2017-05-29T07:31:11.946Z,1007.92
2017-05-29T07:32:13.371Z,1007.93
2017-05-29T07:33:14.794Z,1007.96
2017-05-29T07:34:16.224Z,1007.95
2017-05-29T07:35:17.646Z,1007.99
2017-05-29T07:36:19.140Z,1007.99
2017-05-29T07:37:20.614Z,1008.02
2017-05-29T07:38:22.046Z,1008.01
2017-05-29T07:39:23.464Z,1008.02
2017-05-29T07:40:24.902Z,1008.04
2017-05-29T07:41:26.376Z,1008.03
2017-05-29T07:42:27.852Z,1008.07
2017-05-29T07:43:29.338Z,1008.06
2017-05-29T07:44:30.758Z,1008.08
2017-05-29T07:45:32.181Z,1008.07
2017-05-29T07:46:33.613Z,1008.03
2017-05-29T07:47:35.043Z,1008.03
2017-05-29T07:48:36.474Z,1008.02
2017-05-29T07:49:37.898Z,1007.99
2017-05-29T07:50:39.319Z,1007.98
2017-05-29T07:51:40.746Z,1007.98
2017-05-29T07:52:42.174Z,1007.93
2017-05-29T07:53:43.602Z,1007.94
2017-05-29T07:54:45.023Z,1007.94
2017-05-29T07:55:46.450Z,1007.92
2017-05-29T07:56:47.871Z,1007.91
2017-05-29T07:57:49.292Z,1007.87
2017-05-29T07:58:50.729Z,1007.86
2017-05-29T07:59:52.225Z,1007.85
2017-05-29T08:00:53.681Z,1007.83
2017-05-29T08:01:55.096Z,1007.84
2017-05-29T08:02:56.572Z,1007.83
2017-05-29T08:03:58.000Z,1007.81
2017-05-29T08:04:59.416Z,1007.80
2017-05-29T08:06:00.846Z,1007.80
2017-05-29T08:07:02.276Z,1007.71
2017-05-29T08:08:03.699Z,1007.73
2017-05-29T08:09:05.129Z,1007.68
2017-05-29T08:10:06.556Z,1007.69
2017-05-29T08:11:08.008Z,1007.69
2017-05-29T08:12:09.424Z,1007.71
2017-05-29T08:13:10.849Z,1007.69
2017-05-29T08:14:12.275Z,1007.68
2017-05-29T08:15:13.769Z,1007.67
2017-05-29T08:16:15.179Z,1007.70
2017-05-29T08:17:16.616Z,1007.69
2017-05-29T08:18:18.052Z,1007.69
2017-05-29T08:19:19.569Z,1007.71
2017-05-29T08:20:21.003Z,1007.67
2017-05-29T08:21:22.520Z,1007.68
2017-05-29T08:22:23.984Z,1007.66
2017-05-29T08:23:25.403Z,1007.65
2017-05-29T08:24:26.828Z,1007.66
2017-05-29T08:25:28.256Z,1007.67
2017-05-29T08:26:29.674Z,1007.68
2017-05-29T08:27:31.098Z,1007.68
2017-05-29T08:28:32.531Z,1007.70
2017-05-29T08:29:33.954Z,1007.69
2017-05-29T08:30:35.380Z,1007.70
2017-05-29T08:31:36.819Z,1007.72
2017-05-29T08:32:38.246Z,1007.65
2017-05-29T08:33:39.669Z,1007.66
2017-05-29T08:34:41.089Z,1007.66
2017-05-29T08:35:42.541Z,1007.63
2017-05-29T08:36:43.964Z,1007.60
2017-05-29T08:37:45.395Z,1007.64
2017-05-29T08:38:46.818Z,1007.58
2017-05-29T08:39:48.242Z,1007.57
2017-05-29T08:40:49.666Z,1007.56
2017-05-29T08:41:51.092Z,1007.55
2017-05-29T08:42:52.518Z,1007.53
2017-05-29T08:43:53.944Z,1007.52
2017-05-29T08:44:55.376Z,1007.56
2017-05-29T08:45:56.802Z,1007.52
2017-05-29T08:46:58.222Z,1007.52
2017-05-29T08:47:59.641Z,1007.49
2017-05-29T08:49:01.068Z,1007.50
2017-05-29T08:50:02.483Z,1007.48
2017-05-29T08:51:03.915Z,1007.49
2017-05-29T08:52:05.362Z,1007.47
2017-05-29T08:53:06.803Z,1007.44
2017-05-29T08:54:08.244Z,1007.44
2017-05-29T08:55:09.676Z,1007.42
2017-05-29T08:56:11.095Z,1007.44
2017-05-29T08:57:12.522Z,1007.44
2017-05-29T08:58:13.949Z,1007.42
2017-05-29T08:59:15.377Z,1007.42
2017-05-29T09:00:16.814Z,1007.39
2017-05-29T09:01:18.243Z,1007.39
2017-05-29T09:02:19.672Z,1007.38
2017-05-29T09:03:21.093Z,1007.42
2017-05-29T09:04:22.516Z,1007.41
2017-05-29T09:05:23.944Z,1007.43
2017-05-29T09:06:25.383Z,1007.39
2017-05-29T09:07:26.811Z,1007.42
2017-05-29T09:08:28.245Z,1007.37
2017-05-29T09:09:29.684Z,1007.36
2017-05-29T09:10:31.114Z,1007.33
2017-05-29T09:11:32.570Z,1007.34
2017-05-29T09:12:33.999Z,1007.33
2017-05-29T09:13:35.429Z,1007.29
2017-05-29T09:14:36.847Z,1007.30
2017-05-29T09:15:38.274Z,1007.29
2017-05-29T09:16:39.697Z,1007.26
2017-05-29T09:17:41.117Z,1007.25
2017-05-29T09:18:42.541Z,1007.18
2017-05-29T09:19:43.968Z,1007.18
2017-05-29T09:20:45.396Z,1007.21
2017-05-29T09:21:46.818Z,1007.18
2017-05-29T09:22:48.248Z,1007.21
2017-05-29T09:23:49.660Z,1007.24
2017-05-29T09:24:51.081Z,1007.22
2017-05-29T09:25:52.502Z,1007.23
2017-05-29T09:26:53.920Z,1007.23
2017-05-29T09:27:55.354Z,1007.21
2017-05-29T09:28:56.777Z,1007.22
2017-05-29T09:29:58.197Z,1007.16
2017-05-29T09:30:59.630Z,1007.15
2017-05-29T09:32:01.110Z,1007.15
2017-05-29T09:33:02.484Z,1007.12
2017-05-29T09:34:03.912Z,1007.07
2017-05-29T09:35:05.335Z,1007.09
2017-05-29T09:36:06.778Z,1007.03
2017-05-29T09:37:08.220Z,1006.98
2017-05-29T09:38:09.653Z,1007.01
2017-05-29T09:39:11.064Z,1006.98
2017-05-29T09:40:12.490Z,1006.96
2017-05-29T09:41:13.933Z,1006.97
2017-05-29T09:42:15.357Z,1006.97
2017-05-29T09:43:16.778Z,1006.93
2017-05-29T09:44:18.197Z,1006.93
2017-05-29T09:45:19.623Z,1006.92
2017-05-29T09:46:21.059Z,1006.87
2017-05-29T09:47:22.478Z,1006.87
2017-05-29T09:48:23.909Z,1006.87
2017-05-29T09:49:25.356Z,1006.89
2017-05-29T09:50:26.798Z,1006.85
2017-05-29T09:51:28.222Z,1006.85
2017-05-29T09:52:29.645Z,1006.83
2017-05-29T09:53:31.070Z,1006.85
2017-05-29T09:54:32.500Z,1006.84
2017-05-29T09:55:33.921Z,1006.85
2017-05-29T09:56:35.413Z,1006.81
2017-05-29T09:57:36.774Z,1006.82
2017-05-29T09:58:38.195Z,1006.78
2017-05-29T09:59:39.625Z,1006.78
2017-05-29T10:00:41.060Z,1006.78
2017-05-29T10:01:42.482Z,1006.86
2017-05-29T10:02:43.939Z,1006.80
2017-05-29T10:03:45.375Z,1006.75
2017-05-29T10:04:46.802Z,1006.76
2017-05-29T10:05:48.232Z,1006.77
2017-05-29T10:06:49.658Z,1006.77
2017-05-29T10:07:51.083Z,1006.72
2017-05-29T10:08:52.509Z,1006.76
2017-05-29T10:09:53.950Z,1006.73
2017-05-29T10:10:55.375Z,1006.70
2017-05-29T10:11:56.803Z,1006.66
2017-05-29T10:12:58.219Z,1006.64
2017-05-29T10:13:59.649Z,1006.66
2017-05-29T10:15:01.069Z,1006.68
2017-05-29T10:16:02.492Z,1006.65
2017-05-29T10:17:03.919Z,1006.67
2017-05-29T10:18:05.344Z,1006.64
2017-05-29T10:19:06.774Z,1006.64
2017-05-29T10:20:08.197Z,1006.61
2017-05-29T10:21:09.624Z,1006.63
2017-05-29T10:22:11.085Z,1006.59
2017-05-29T10:23:12.509Z,1006.57
2017-05-29T10:24:13.928Z,1006.57
2017-05-29T10:25:15.352Z,1006.53
2017-05-29T10:26:16.775Z,1006.51
2017-05-29T10:27:18.202Z,1006.53
2017-05-29T10:28:19.632Z,1006.56
2017-05-29T10:29:21.044Z,1006.47
2017-05-29T10:30:22.482Z,1006.47
2017-05-29T10:31:23.891Z,1006.45
2017-05-29T10:32:25.326Z,1006.44
2017-05-29T10:33:26.745Z,1006.47
2017-05-29T10:34:28.176Z,1006.47
2017-05-29T10:35:29.602Z,1006.46
2017-05-29T10:36:31.032Z,1006.45
2017-05-29T10:37:32.451Z,1006.44
2017-05-29T10:38:33.879Z,1006.49
2017-05-29T10:39:35.339Z,1006.44
2017-05-29T10:40:36.772Z,1006.48
2017-05-29T10:41:38.193Z,1006.45
2017-05-29T10:42:39.620Z,1006.45
2017-05-29T10:43:41.045Z,1006.35
2017-05-29T10:44:42.497Z,1006.45
2017-05-29T10:45:43.919Z,1006.43
2017-05-29T10:46:45.351Z,1006.46
2017-05-29T10:47:46.792Z,1006.45
2017-05-29T10:48:48.211Z,1006.44
2017-05-29T10:49:49.644Z,1006.45
2017-05-29T10:50:51.079Z,1006.38
2017-05-29T10:51:52.494Z,1006.39
2017-05-29T10:52:53.921Z,1006.40
2017-05-29T10:53:55.344Z,1006.39
2017-05-29T10:54:56.788Z,1006.38
2017-05-29T10:55:58.227Z,1006.38
2017-05-29T10:56:59.672Z,1006.38
2017-05-29T10:58:01.099Z,1006.40
2017-05-29T10:59:02.519Z,1006.39
2017-05-29T11:00:03.998Z,1006.37
2017-05-29T11:01:05.378Z,1006.36
2017-05-29T11:02:06.855Z,1006.34
2017-05-29T11:03:08.270Z,1006.28
2017-05-29T11:04:09.698Z,1006.38
2017-05-29T11:05:11.124Z,1006.34
2017-05-29T11:06:12.544Z,1006.36
2017-05-29T11:07:13.973Z,1006.34
2017-05-29T11:08:15.400Z,1006.39
2017-05-29T11:09:16.818Z,1006.34
2017-05-29T11:10:18.247Z,1006.34
2017-05-29T11:11:19.670Z,1006.33
2017-05-29T11:12:21.138Z,1006.34
2017-05-29T11:13:22.572Z,1006.33
2017-05-29T11:14:24.000Z,1006.34
2017-05-29T11:15:25.433Z,1006.36
2017-05-29T11:16:26.849Z,1006.33
2017-05-29T11:17:28.279Z,1006.29
2017-05-29T11:18:29.706Z,1006.36
2017-05-29T11:19:31.129Z,1006.26
2017-05-29T11:20:32.551Z,1006.28
2017-05-29T11:21:33.976Z,1006.26
2017-05-29T11:22:35.409Z,1006.29
2017-05-29T11:23:36.833Z,1006.27
2017-05-29T11:24:38.262Z,1006.31
2017-05-29T11:25:39.745Z,1006.27
2017-05-29T11:26:41.121Z,1006.32
2017-05-29T11:27:42.573Z,1006.26
2017-05-29T11:28:43.994Z,1006.29
2017-05-29T11:29:45.424Z,1006.31
2017-05-29T11:30:46.853Z,1006.21
2017-05-29T11:31:48.268Z,1006.24
2017-05-29T11:32:49.694Z,1006.30
2017-05-29T11:33:51.125Z,1006.24
2017-05-29T11:34:52.571Z,1006.26
2017-05-29T11:35:53.996Z,1006.19
2017-05-29T11:36:55.438Z,1006.23
2017-05-29T11:37:56.881Z,1006.23
2017-05-29T11:38:58.327Z,1006.32
2017-05-29T11:39:59.750Z,1006.22
2017-05-29T11:41:01.210Z,1006.12
2017-05-29T11:42:02.627Z,1006.20
2017-05-29T11:43:04.062Z,1006.07
2017-05-29T11:44:05.492Z,1006.10
2017-05-29T11:45:06.915Z,1006.12
2017-05-29T11:46:08.338Z,1006.15
2017-05-29T11:47:09.760Z,1006.11
2017-05-29T11:48:11.184Z,1006.09
2017-05-29T11:49:12.600Z,1006.14
2017-05-29T11:50:14.031Z,1006.08
2017-05-29T11:51:15.491Z,1006.04
2017-05-29T11:52:16.918Z,1005.97
2017-05-29T11:53:18.334Z,1005.99
2017-05-29T11:54:19.759Z,1005.98
2017-05-29T11:55:21.195Z,1005.99
2017-05-29T11:56:22.611Z,1006.00
2017-05-29T11:57:24.032Z,1005.97
2017-05-29T11:58:25.454Z,1005.97
2017-05-29T11:59:26.877Z,1005.92
2017-05-29T12:00:28.353Z,1005.90
2017-05-29T12:01:29.799Z,1005.84
2017-05-29T12:02:31.215Z,1005.87
2017-05-29T12:03:32.638Z,1005.83
2017-05-29T12:04:34.069Z,1005.83
2017-05-29T12:05:35.506Z,1005.94
2017-05-29T12:06:36.991Z,1005.88
2017-05-29T12:07:38.416Z,1005.90
2017-05-29T12:08:39.890Z,1005.80
2017-05-29T12:09:44.060Z,1005.78
2017-05-29T12:10:45.462Z,1005.77
2017-05-29T12:11:47.439Z,1005.78
2017-05-29T12:12:50.633Z,1005.82
2017-05-29T12:13:52.816Z,1005.78
2017-05-29T12:14:56.675Z,1005.77
2017-05-29T12:15:58.142Z,1005.73
2017-05-29T12:17:02.444Z,1005.70
2017-05-29T12:18:03.811Z,1005.70
2017-05-29T12:19:07.613Z,1005.71
2017-05-29T12:20:10.505Z,1005.75
2017-05-29T12:21:12.479Z,1005.67
2017-05-29T12:22:16.092Z,1005.67
2017-05-29T12:23:18.672Z,1005.66